createdAt,value
2018-12-11T00:00:36.634Z,97555.20
2018-12-11T00:03:05.105Z,97554.28
2018-12-11T00:05:33.571Z,97560.72
2018-12-11T00:08:02.043Z,97478.20
2018-12-11T00:10:30.482Z,97566.21
2018-12-11T00:12:59.323Z,97566.64
2018-12-11T00:15:27.799Z,97572.17
2018-12-11T00:17:56.232Z,97570.38
2018-12-11T00:20:25.551Z,97570.32
2018-12-11T00:22:54.062Z,97577.09
2018-12-11T00:25:22.543Z,97571.05
2018-12-11T00:27:50.979Z,97543.32
2018-12-11T00:30:19.463Z,97577.80
2018-12-11T00:32:47.866Z,97576.44
2018-12-11T00:35:16.295Z,97581.11
2018-12-11T00:37:44.782Z,97572.93
2018-12-11T00:40:13.250Z,97570.79
2018-12-11T00:42:41.662Z,97564.37
2018-12-11T00:45:10.112Z,97579.52
2018-12-11T00:47:38.885Z,97574.30
2018-12-11T00:50:07.928Z,97569.58
2018-12-11T00:52:36.403Z,97569.56
2018-12-11T00:55:04.876Z,97574.22
2018-12-11T00:57:33.344Z,97574.22
2018-12-11T01:00:01.829Z,97569.44
2018-12-11T01:02:30.229Z,97400.02
2018-12-11T01:04:58.723Z,97564.91
2018-12-11T01:07:27.219Z,97564.99
2018-12-11T01:09:55.668Z,97567.20
2018-12-11T01:12:24.142Z,97562.47
2018-12-11T01:14:53.940Z,97574.80
2018-12-11T01:17:22.382Z,97574.73
2018-12-11T01:19:50.870Z,97574.67
2018-12-11T01:22:19.347Z,97576.44
2018-12-11T01:24:49.198Z,97582.03
2018-12-11T01:27:17.594Z,97591.50
2018-12-11T01:29:46.307Z,97555.70
2018-12-11T01:32:14.769Z,97596.34
2018-12-11T01:34:43.171Z,97591.48
2018-12-11T01:37:11.665Z,97585.81
2018-12-11T01:39:40.152Z,97575.88
2018-12-11T01:42:08.929Z,97578.02
2018-12-11T01:44:37.417Z,97576.30
2018-12-11T01:47:05.855Z,97573.30
2018-12-11T01:49:34.269Z,97572.02
2018-12-11T01:52:02.765Z,97575.38
2018-12-11T01:54:31.232Z,97566.34
2018-12-11T01:56:59.910Z,97558.19
2018-12-11T01:59:28.409Z,97329.62
2018-12-11T02:01:56.844Z,97555.98
2018-12-11T02:04:25.490Z,97558.06
2018-12-11T02:06:53.973Z,97564.86
2018-12-11T02:09:22.414Z,97562.25
2018-12-11T02:11:50.864Z,97559.23
2018-12-11T02:14:19.389Z,97554.53
2018-12-11T02:16:47.823Z,97552.30
2018-12-11T02:19:16.712Z,97556.46
2018-12-11T02:21:45.229Z,97555.56
2018-12-11T02:24:14.404Z,97556.86
2018-12-11T02:26:43.104Z,97562.45
2018-12-11T02:29:11.614Z,97552.51
2018-12-11T02:31:40.077Z,97548.72
2018-12-11T02:34:08.525Z,97559.97
2018-12-11T02:36:37.049Z,97572.14
2018-12-11T02:39:07.266Z,97569.11
2018-12-11T02:41:35.951Z,97564.67
2018-12-11T02:44:04.438Z,97565.39
2018-12-11T02:46:33.130Z,97547.25
2018-12-11T02:49:01.575Z,97560.97
2018-12-11T02:51:30.111Z,97571.13
2018-12-11T02:53:58.583Z,97567.25
2018-12-11T02:56:27.085Z,97556.08
2018-12-11T02:58:55.608Z,97555.23
2018-12-11T03:01:24.039Z,97549.09
2018-12-11T03:03:52.451Z,97544.33
2018-12-11T03:06:22.731Z,97531.80
2018-12-11T03:08:51.304Z,97540.80
2018-12-11T03:11:19.785Z,97552.72
2018-12-11T03:13:48.280Z,97555.58
2018-12-11T03:16:17.123Z,97565.72
2018-12-11T03:18:45.996Z,97568.29
2018-12-11T03:21:14.481Z,97559.65
2018-12-11T03:23:42.911Z,97563.41
2018-12-11T03:26:11.940Z,97563.32
2018-12-11T03:28:40.453Z,97571.32
2018-12-11T03:31:08.952Z,97559.86
2018-12-11T03:33:37.425Z,97554.79
2018-12-11T03:36:05.943Z,97558.86
2018-12-11T03:38:34.628Z,97557.94
2018-12-11T03:41:03.302Z,97558.75
2018-12-11T03:43:32.003Z,97548.47
2018-12-11T03:46:00.686Z,97548.89
2018-12-11T03:48:29.574Z,97551.48
2018-12-11T03:50:58.133Z,97550.61
2018-12-11T03:53:26.893Z,97547.63
2018-12-11T03:55:55.751Z,97547.64
2018-12-11T03:58:24.268Z,97541.73
2018-12-11T04:00:52.701Z,97551.62
2018-12-11T04:03:21.169Z,97544.81
2018-12-11T04:05:49.661Z,97542.27
2018-12-11T04:08:18.141Z,97544.47
2018-12-11T04:10:46.625Z,97541.08
2018-12-11T04:13:15.120Z,97552.30
2018-12-11T04:15:43.565Z,97546.76
2018-12-11T04:18:12.038Z,97563.10
2018-12-11T04:20:40.553Z,97565.59
2018-12-11T04:23:09.004Z,97563.03
2018-12-11T04:25:37.671Z,97562.16
2018-12-11T04:28:07.714Z,97558.65
2018-12-11T04:30:38.094Z,97547.91
2018-12-11T04:33:06.560Z,97546.54
2018-12-11T04:35:35.038Z,97551.23
2018-12-11T04:38:03.745Z,97548.59
2018-12-11T04:40:32.233Z,97558.42
2018-12-11T04:43:01.352Z,97558.42
2018-12-11T04:45:30.036Z,97559.29
2018-12-11T04:47:58.740Z,97555.46
2018-12-11T04:50:27.279Z,97554.50
2018-12-11T04:52:55.715Z,97560.94
2018-12-11T04:55:24.155Z,97565.62
2018-12-11T04:57:52.635Z,97562.19
2018-12-11T05:00:22.051Z,97555.79
2018-12-11T05:02:51.042Z,97553.73
2018-12-11T05:05:19.553Z,97553.70
2018-12-11T05:07:48.691Z,97563.50
2018-12-11T05:10:19.674Z,97554.05
2018-12-11T05:12:48.195Z,97555.76
2018-12-11T05:15:16.631Z,97552.27
2018-12-11T05:17:45.337Z,97553.30
2018-12-11T05:20:13.826Z,97553.63
2018-12-11T05:22:42.300Z,97544.55
2018-12-11T05:25:10.762Z,97539.83
2018-12-11T05:27:39.281Z,97543.70
2018-12-11T05:30:08.702Z,97543.59
2018-12-11T05:32:37.204Z,97539.66
2018-12-11T05:35:05.819Z,97539.66
2018-12-11T05:37:34.250Z,97540.14
2018-12-11T05:40:02.765Z,97542.75
2018-12-11T05:42:31.274Z,97543.17
2018-12-11T05:44:59.760Z,97540.67
2018-12-11T05:47:28.459Z,97540.60
2018-12-11T05:49:56.978Z,97532.91
2018-12-11T05:52:26.295Z,97552.19
2018-12-11T05:54:54.813Z,97530.28
2018-12-11T05:57:28.642Z,97532.44
2018-12-11T06:00:03.114Z,97531.15
2018-12-11T06:02:32.660Z,97520.80
2018-12-11T06:05:01.655Z,97520.38
2018-12-11T06:07:30.821Z,97519.52
2018-12-11T06:10:00.256Z,97488.23
2018-12-11T06:15:30.214Z,97539.50
2018-12-11T06:17:58.892Z,97537.38
2018-12-11T06:20:27.681Z,97532.09
2018-12-11T06:22:56.447Z,97529.97
2018-12-11T06:25:25.003Z,97533.63
2018-12-11T06:27:53.740Z,97532.75
2018-12-11T06:30:22.672Z,97535.69
2018-12-11T06:32:52.197Z,97532.24
2018-12-11T06:35:21.069Z,97532.59
2018-12-11T06:37:49.568Z,97542.92
2018-12-11T06:40:18.108Z,97536.86
2018-12-11T06:42:46.839Z,97542.50
2018-12-11T06:45:15.729Z,97539.09
2018-12-11T06:47:44.229Z,97532.59
2018-12-11T06:50:12.891Z,97529.56
2018-12-11T06:52:41.435Z,97532.16
2018-12-11T06:55:10.244Z,97532.16
2018-12-11T06:57:38.772Z,97529.16
2018-12-11T07:00:08.483Z,97530.44
2018-12-11T07:02:36.973Z,97533.51
2018-12-11T07:05:05.710Z,97535.97
2018-12-11T07:07:34.212Z,97538.52
2018-12-11T07:10:03.207Z,97544.00
2018-12-11T07:12:32.548Z,97545.69
2018-12-11T07:15:01.032Z,97541.41
2018-12-11T07:17:29.559Z,97545.40
2018-12-11T07:19:58.376Z,97549.02
2018-12-11T07:22:28.465Z,97543.31
2018-12-11T07:24:58.854Z,97535.64
2018-12-11T07:27:27.708Z,97534.31
2018-12-11T07:29:56.150Z,97537.25
2018-12-11T07:32:26.385Z,97534.80
2018-12-11T07:34:54.860Z,97531.86
2018-12-11T07:37:23.319Z,97524.52
2018-12-11T07:39:51.792Z,97530.98
2018-12-11T07:42:20.958Z,97531.02
2018-12-11T07:44:49.408Z,97532.77
2018-12-11T07:47:18.540Z,97534.89
2018-12-11T07:49:46.986Z,97544.59
2018-12-11T07:52:15.410Z,97541.00
2018-12-11T07:54:43.899Z,97539.44
2018-12-11T07:57:12.376Z,97542.72
2018-12-11T07:59:41.071Z,97549.83
2018-12-11T08:02:09.595Z,97545.95
2018-12-11T08:04:38.038Z,97542.67
2018-12-11T08:07:06.518Z,97554.52
2018-12-11T08:09:35.071Z,97553.87
2018-12-11T08:12:08.237Z,97557.97
2018-12-11T08:14:34.621Z,97552.02
2018-12-11T08:17:03.127Z,97550.31
2018-12-11T08:19:31.566Z,97551.11
2018-12-11T08:22:00.031Z,97554.06
2018-12-11T08:24:28.555Z,97567.42
2018-12-11T08:26:56.996Z,97566.16
2018-12-11T08:29:25.473Z,97553.64
2018-12-11T08:31:53.960Z,97550.66
2018-12-11T08:34:22.456Z,97556.28
2018-12-11T08:36:50.905Z,97557.17
2018-12-11T08:39:19.405Z,97548.14
2018-12-11T08:41:47.851Z,97555.53
2018-12-11T08:44:16.364Z,97549.15
2018-12-11T08:46:44.886Z,97557.34
2018-12-11T08:49:13.397Z,97560.38
2018-12-11T08:51:41.831Z,97557.33
2018-12-11T08:54:10.345Z,97558.20
2018-12-11T08:56:38.782Z,97562.95
2018-12-11T08:59:07.290Z,97565.97
2018-12-11T09:01:35.815Z,97560.79
2018-12-11T09:04:04.296Z,97563.83
2018-12-11T09:06:32.743Z,97574.58
2018-12-11T09:09:01.291Z,97568.53
2018-12-11T09:11:29.828Z,97562.49
2018-12-11T09:13:58.268Z,97566.34
2018-12-11T09:16:27.031Z,97553.41
2018-12-11T09:18:55.487Z,97556.01
2018-12-11T09:21:24.281Z,97554.73
2018-12-11T09:23:54.319Z,97551.29
2018-12-11T09:26:22.952Z,97548.28
2018-12-11T09:28:51.652Z,97551.31
2018-12-11T09:31:21.224Z,97550.45
2018-12-11T09:33:50.092Z,97538.80
2018-12-11T09:36:18.546Z,97540.06
2018-12-11T09:38:47.042Z,97537.85
2018-12-11T09:41:15.504Z,97542.11
2018-12-11T09:43:44.943Z,97539.94
2018-12-11T09:46:13.412Z,97549.46
2018-12-11T09:48:41.863Z,97543.82
2018-12-11T09:51:10.331Z,97542.55
2018-12-11T09:53:39.236Z,97540.34
2018-12-11T09:56:07.701Z,97538.55
2018-12-11T09:58:36.216Z,97538.56
2018-12-11T10:01:05.703Z,97534.58
2018-12-11T10:03:34.410Z,97543.64
2018-12-11T10:06:03.197Z,97539.75
2018-12-11T10:08:31.675Z,97537.13
2018-12-11T10:11:00.122Z,97534.98
2018-12-11T10:13:28.732Z,97534.53
2018-12-11T10:15:57.215Z,97526.72
2018-12-11T10:18:25.695Z,97531.38
2018-12-11T10:20:54.126Z,97532.63
2018-12-11T10:23:22.947Z,97533.47
2018-12-11T10:25:51.389Z,97531.34
2018-12-11T10:28:20.089Z,97495.95
2018-12-11T10:30:48.576Z,97524.37
2018-12-11T10:33:17.533Z,97520.16
2018-12-11T10:35:47.843Z,97519.34
2018-12-11T10:38:16.318Z,97517.59
2018-12-11T10:40:45.677Z,97520.70
2018-12-11T10:43:15.727Z,97514.63
2018-12-11T10:45:44.156Z,97521.11
2018-12-11T10:48:12.870Z,97515.92
2018-12-11T10:50:41.386Z,97521.09
2018-12-11T10:53:09.855Z,97519.83
2018-12-11T10:55:38.311Z,97512.05
2018-12-11T10:58:07.390Z,97517.66
2018-12-11T11:00:41.498Z,97516.34
2018-12-11T11:03:10.563Z,97519.88
2018-12-11T11:05:38.980Z,97513.36
2018-12-11T11:08:07.408Z,97512.92
2018-12-11T11:10:35.911Z,97507.75
2018-12-11T11:13:04.425Z,97498.66
2018-12-11T11:15:32.967Z,97507.31
2018-12-11T11:18:01.444Z,97505.59
2018-12-11T11:20:29.902Z,97493.95
2018-12-11T11:22:58.365Z,97503.05
2018-12-11T11:25:27.462Z,97135.45
2018-12-11T11:27:55.936Z,97488.73
2018-12-11T11:30:24.442Z,97487.02
2018-12-11T11:32:52.950Z,97494.33
2018-12-11T11:35:21.672Z,97496.09
2018-12-11T11:37:50.143Z,97490.92
2018-12-11T11:40:18.754Z,97482.69
2018-12-11T11:42:47.306Z,97488.28
2018-12-11T11:45:15.738Z,97486.52
2018-12-11T11:47:44.245Z,97485.23
2018-12-11T11:50:14.011Z,97483.89
2018-12-11T11:52:42.439Z,97490.39
2018-12-11T11:55:10.921Z,97484.70
2018-12-11T11:57:39.387Z,97483.03
2018-12-11T12:00:10.233Z,97482.91
2018-12-11T12:02:38.711Z,97470.13
2018-12-11T12:05:07.308Z,97467.22
2018-12-11T12:07:37.584Z,97471.28
2018-12-11T12:10:07.882Z,97473.95
2018-12-11T12:12:36.952Z,97475.27
2018-12-11T12:15:06.759Z,97469.19
2018-12-11T12:17:35.374Z,97469.08
2018-12-11T12:20:07.183Z,97468.52
2018-12-11T12:22:35.661Z,97466.73
2018-12-11T12:25:04.843Z,97458.91
2018-12-11T12:27:33.307Z,97469.36
2018-12-11T12:30:01.770Z,97464.81
2018-12-11T12:32:30.216Z,97475.16
2018-12-11T12:34:58.671Z,97469.75
2018-12-11T12:37:27.188Z,97472.72
2018-12-11T12:39:55.644Z,97476.86
2018-12-11T12:42:24.059Z,97481.25
2018-12-11T12:44:52.524Z,97483.09
2018-12-11T12:47:20.963Z,97482.80
2018-12-11T12:49:50.799Z,97484.58
2018-12-11T12:52:19.632Z,97489.23
2018-12-11T12:54:48.361Z,97483.95
2018-12-11T12:57:16.823Z,97484.27
2018-12-11T12:59:45.331Z,97482.25
2018-12-11T13:02:13.747Z,97484.89
2018-12-11T13:04:42.163Z,97476.20
2018-12-11T13:07:10.644Z,97478.61
2018-12-11T13:09:39.089Z,97488.00
2018-12-11T13:12:07.494Z,97493.24
2018-12-11T13:14:35.991Z,97488.34
2018-12-11T13:17:06.133Z,97500.09
2018-12-11T13:19:34.556Z,97506.43
2018-12-11T13:22:03.058Z,97501.17
2018-12-11T13:24:31.503Z,97497.77
2018-12-11T13:26:59.947Z,97502.53
2018-12-11T13:29:28.457Z,97480.21
2018-12-11T13:31:57.153Z,97509.52
2018-12-11T13:34:25.704Z,97509.40
2018-12-11T13:36:54.188Z,97510.89
2018-12-11T13:39:22.657Z,97517.56
2018-12-11T13:41:51.137Z,97523.13
2018-12-11T13:44:19.815Z,97521.85
2018-12-11T13:46:48.451Z,97521.89
2018-12-11T13:49:16.901Z,97523.25
2018-12-11T13:51:45.409Z,97533.65
2018-12-11T13:54:13.856Z,97535.45
2018-12-11T13:56:42.307Z,97540.77
2018-12-11T13:59:10.821Z,97538.98
2018-12-11T14:01:39.282Z,97539.02
2018-12-11T14:04:07.765Z,97539.99
2018-12-11T14:06:36.274Z,97540.39
2018-12-11T14:12:09.782Z,97538.33
2018-12-11T14:14:38.509Z,97548.23
2018-12-11T14:17:07.031Z,97539.19
2018-12-11T14:19:35.534Z,97550.54
2018-12-11T14:22:04.092Z,97554.50
2018-12-11T14:24:32.796Z,97551.12
2018-12-11T14:27:01.319Z,97557.14
2018-12-11T14:29:29.770Z,97555.90
2018-12-11T14:31:58.219Z,97547.70
2018-12-11T14:34:26.714Z,97463.30
2018-12-11T14:36:55.144Z,97556.45
2018-12-11T14:39:23.574Z,97551.73
2018-12-11T14:41:52.143Z,97546.20
2018-12-11T14:44:20.642Z,97550.09
2018-12-11T14:46:49.095Z,97553.59
2018-12-11T14:49:17.574Z,97554.95
2018-12-11T14:51:47.877Z,97552.42
2018-12-11T14:54:16.311Z,97557.23
2018-12-11T14:56:44.759Z,97552.08
2018-12-11T14:59:13.206Z,97559.87
2018-12-11T15:01:41.941Z,97556.00
2018-12-11T15:04:12.137Z,97562.94
2018-12-11T15:06:40.603Z,97557.74
2018-12-11T15:09:15.232Z,97565.55
2018-12-11T15:11:43.931Z,97557.33
2018-12-11T15:14:12.611Z,97568.56
2018-12-11T15:16:41.311Z,97563.39
2018-12-11T15:19:09.976Z,97570.72
2018-12-11T15:21:38.443Z,97580.21
2018-12-11T15:24:06.971Z,97578.48
2018-12-11T15:26:35.424Z,97563.81
2018-12-11T15:29:04.163Z,97574.17
2018-12-11T15:31:32.647Z,97574.16
2018-12-11T15:34:01.115Z,97575.91
2018-12-11T15:36:29.560Z,97456.81
2018-12-11T15:38:58.050Z,97579.76
2018-12-11T15:41:26.487Z,97579.76
2018-12-11T15:43:56.646Z,97587.08
2018-12-11T15:46:25.199Z,97583.20
2018-12-11T15:48:53.661Z,97587.91
2018-12-11T15:51:22.106Z,97592.70
2018-12-11T15:53:50.601Z,97585.39
2018-12-11T15:56:19.471Z,97595.27
2018-12-11T15:58:47.901Z,97598.69
2018-12-11T16:01:16.416Z,97600.83
2018-12-11T16:03:44.879Z,97601.67
2018-12-11T16:06:13.347Z,97605.56
2018-12-11T16:08:41.867Z,97614.56
2018-12-11T16:11:10.379Z,97616.27
2018-12-11T16:13:38.871Z,97617.10
2018-12-11T16:16:07.410Z,97619.23
2018-12-11T16:18:35.902Z,97620.09
2018-12-11T16:21:04.402Z,97623.11
2018-12-11T16:23:32.967Z,97613.16
2018-12-11T16:26:01.490Z,97608.45
2018-12-11T16:28:29.966Z,97611.90
2018-12-11T16:30:58.461Z,97608.91
2018-12-11T16:33:26.973Z,97615.37
2018-12-11T16:35:55.461Z,97618.85
2018-12-11T16:38:23.956Z,97624.45
2018-12-11T16:40:52.691Z,97619.28
2018-12-11T16:43:21.183Z,97621.89
2018-12-11T16:45:49.733Z,97621.05
2018-12-11T16:48:18.217Z,97621.89
2018-12-11T16:50:46.739Z,97658.09
2018-12-11T16:53:15.238Z,97636.11
2018-12-11T16:55:44.347Z,97638.70
2018-12-11T16:58:12.900Z,97637.84
2018-12-11T17:00:41.413Z,97636.55
2018-12-11T17:03:09.884Z,97654.19
2018-12-11T17:05:38.519Z,97648.16
2018-12-11T17:08:07.227Z,97649.41
2018-12-11T17:10:37.447Z,97648.55
2018-12-11T17:13:06.066Z,97641.66
2018-12-11T17:15:36.140Z,97647.27
2018-12-11T17:18:04.689Z,97638.61
2018-12-11T17:20:34.996Z,97646.37
2018-12-11T17:23:03.621Z,97645.08
2018-12-11T17:25:33.213Z,97647.66
2018-12-11T17:28:02.307Z,97652.37
2018-12-11T17:30:31.514Z,97648.48
2018-12-11T17:33:00.755Z,97654.52
2018-12-11T17:35:29.440Z,97650.67
2018-12-11T17:37:58.035Z,97658.89
2018-12-11T17:40:26.596Z,97652.43
2018-12-11T17:42:55.235Z,97557.00
2018-12-11T17:45:26.500Z,97650.73
2018-12-11T17:47:55.113Z,97652.89
2018-12-11T17:50:23.711Z,97653.72
2018-12-11T17:52:52.394Z,97652.00
2018-12-11T17:55:22.028Z,97657.60
2018-12-11T17:57:50.702Z,97654.13
2018-12-11T18:00:19.406Z,97657.14
2018-12-11T18:05:23.492Z,97656.27
2018-12-11T18:07:53.594Z,97657.60
2018-12-11T18:10:22.162Z,97660.27
2018-12-11T18:12:51.598Z,97657.48
2018-12-11T18:15:20.365Z,97660.07
2018-12-11T18:17:48.930Z,97665.67
2018-12-11T18:20:18.203Z,97660.48
2018-12-11T18:22:46.797Z,97660.95
2018-12-11T18:25:15.456Z,97655.76
2018-12-11T18:30:20.689Z,97662.23
2018-12-11T18:32:49.341Z,97668.67
2018-12-11T18:35:18.574Z,97669.98
2018-12-11T18:37:47.331Z,97673.42
2018-12-11T18:40:16.103Z,97674.28
2018-12-11T18:42:45.686Z,97682.02
2018-12-11T18:45:15.300Z,97680.26
2018-12-11T18:47:50.095Z,97675.53
2018-12-11T18:50:21.974Z,97678.11
2018-12-11T18:52:53.491Z,97680.62
2018-12-11T18:55:23.168Z,97681.02
2018-12-11T19:00:26.287Z,97679.18
2018-12-11T19:02:57.162Z,97680.84
2018-12-11T19:05:28.210Z,97678.22
2018-12-11T19:08:00.280Z,97682.05
2018-12-11T19:10:30.070Z,97691.06
2018-12-11T19:12:59.849Z,97687.62
2018-12-11T19:15:29.928Z,97686.31
2018-12-11T19:17:59.640Z,97683.73
2018-12-11T19:20:33.660Z,97679.70
2018-12-11T19:23:09.670Z,97675.67
2018-12-11T19:25:39.148Z,97670.93
2018-12-11T19:28:07.952Z,97673.90
2018-12-11T19:30:39.023Z,97679.97
2018-12-11T19:33:10.474Z,97675.63
2018-12-11T19:35:41.800Z,97665.73
2018-12-11T19:38:13.845Z,97666.58
2018-12-11T19:40:44.126Z,97660.95
2018-12-11T19:43:12.785Z,97668.69
2018-12-11T19:45:46.031Z,97664.77
2018-12-11T19:48:14.638Z,97667.34
2018-12-11T19:50:43.845Z,97669.44
2018-12-11T19:53:16.836Z,97659.06
2018-12-11T19:55:46.587Z,97656.52
2018-12-11T19:58:16.326Z,97658.20
2018-12-11T20:00:45.007Z,97656.05
2018-12-11T20:03:17.800Z,97650.46
2018-12-11T20:05:46.782Z,97656.05
2018-12-11T20:08:16.708Z,97530.20
2018-12-11T20:10:48.968Z,97643.25
2018-12-11T20:13:21.878Z,97654.09
2018-12-11T20:15:54.568Z,97652.28
2018-12-11T20:18:24.491Z,97653.14
2018-12-11T20:20:55.323Z,97641.91
2018-12-11T20:26:00.751Z,97647.50
2018-12-11T20:28:32.300Z,97647.50
2018-12-11T20:31:01.038Z,97653.13
2018-12-11T20:33:30.715Z,97650.95
2018-12-11T20:36:01.399Z,97448.27
2018-12-11T20:38:35.791Z,97666.48
2018-12-11T20:41:06.804Z,97660.02
2018-12-11T20:43:36.114Z,97652.28
2018-12-11T20:46:05.706Z,97656.16
2018-12-11T20:48:35.313Z,97649.66
2018-12-11T20:51:05.150Z,97650.08
2018-12-11T20:53:34.210Z,97648.36
2018-12-11T20:56:03.363Z,97642.33
2018-12-11T21:01:07.870Z,97657.39
2018-12-11T21:03:36.474Z,97646.16
2018-12-11T21:06:06.192Z,97658.58
2018-12-11T21:08:36.132Z,97654.69
2018-12-11T21:11:04.837Z,97654.59
2018-12-11T21:13:34.985Z,97658.02
2018-12-11T21:16:04.582Z,97654.03
2018-12-11T21:21:10.378Z,97649.66
2018-12-11T21:23:39.053Z,97653.97
2018-12-11T21:26:08.880Z,97650.70
2018-12-11T21:28:38.520Z,97653.63
2018-12-11T21:31:08.790Z,97648.37
2018-12-11T21:33:38.046Z,97656.91
2018-12-11T21:36:06.720Z,97654.69
2018-12-11T21:38:35.467Z,97654.63
2018-12-11T21:41:04.280Z,97649.86
2018-12-11T21:43:33.248Z,97648.56
2018-12-11T21:46:01.803Z,97646.42
2018-12-11T21:48:30.404Z,97636.57
2018-12-11T21:50:59.113Z,97645.92
2018-12-11T21:53:27.885Z,97649.31
2018-12-11T21:55:56.371Z,97648.48
2018-12-11T21:58:24.891Z,97647.16
2018-12-11T22:00:53.640Z,97643.82
2018-12-11T22:03:22.607Z,97650.29
2018-12-11T22:05:52.341Z,97651.99
2018-12-11T22:08:21.316Z,97652.38
2018-12-11T22:10:49.766Z,97655.70
2018-12-11T22:13:18.295Z,97653.95
2018-12-11T22:15:46.735Z,97647.09
2018-12-11T22:18:15.214Z,97656.13
2018-12-11T22:20:43.684Z,97652.73
2018-12-11T22:23:12.175Z,97652.81
2018-12-11T22:25:40.717Z,97649.00
2018-12-11T22:28:09.208Z,97655.57
2018-12-11T22:30:38.050Z,97650.84
2018-12-11T22:33:06.500Z,97649.16
2018-12-11T22:35:34.983Z,97647.82
2018-12-11T22:38:03.730Z,97645.23
2018-12-11T22:40:32.162Z,97645.66
2018-12-11T22:43:00.663Z,97649.54
2018-12-11T22:45:29.105Z,97650.34
2018-12-11T22:47:57.542Z,97646.04
2018-12-11T22:50:26.052Z,97652.00
2018-12-11T22:52:54.504Z,97647.20
2018-12-11T22:55:22.947Z,97646.73
2018-12-11T22:57:51.421Z,97639.41
2018-12-11T23:00:20.032Z,97637.64
2018-12-11T23:02:48.443Z,97631.19
2018-12-11T23:05:16.965Z,97632.05
2018-12-11T23:07:45.414Z,97626.88
2018-12-11T23:10:13.876Z,97632.46
2018-12-11T23:12:42.402Z,97631.61
2018-12-11T23:15:10.846Z,97626.88
2018-12-11T23:17:39.573Z,97626.45
2018-12-11T23:20:08.027Z,97616.09
2018-12-11T23:22:37.186Z,97624.72
2018-12-11T23:25:05.913Z,97627.73
2018-12-11T23:27:34.378Z,97622.09
2018-12-11T23:30:02.873Z,97622.16
2018-12-11T23:32:32.363Z,97642.91
2018-12-11T23:35:01.041Z,97635.17
2018-12-11T23:37:29.482Z,97629.66
2018-12-11T23:39:58.012Z,97645.25
2018-12-11T23:42:26.488Z,97495.08
2018-12-11T23:44:54.923Z,97625.98
2018-12-11T23:47:23.922Z,97629.86
2018-12-11T23:49:52.418Z,97629.44
2018-12-11T23:52:20.853Z,97631.19
2018-12-11T23:54:49.283Z,97631.20
2018-12-11T23:57:17.762Z,97638.08
2018-12-11T23:59:46.191Z,97625.65
